Time;durP1;ratioP1;P1;durP2;ratioP2;P2;SDS_P1;SDS_P2;PMS_P1;PMS_P2;Temp;Humidity;BMP_temperature;BMP_pressure;BME280_temperature;BME280_humidity;BME280_pressure;Samples;Min_cycle;Max_cycle;Signal;HPM_P1;HPM_P2
2023/03/01 00:01:58;;;;;;;7.05;5.28;;;-0.90;84.80;;;;;;5093599;28;20032;-86
2023/03/01 00:04:24;;;;;;;5.45;4.65;;;-0.80;85.00;;;;;;5075968;28;20488;-82
2023/03/01 00:06:56;;;;;;;7.80;5.72;;;-0.80;84.40;;;;;;5075357;28;20084;-85
2023/03/01 00:09:22;;;;;;;5.50;4.60;;;-0.80;84.60;;;;;;5093432;28;20041;-82
2023/03/01 00:11:48;;;;;;;3.63;3.30;;;-0.80;84.90;;;;;;5076762;28;20032;-80
2023/03/01 00:14:16;;;;;;;5.68;3.97;;;-0.70;84.40;;;;;;5111769;28;20028;-83
2023/03/01 00:16:43;;;;;;;6.18;5.57;;;-0.70;84.10;;;;;;5096185;28;20031;-84
2023/03/01 00:19:15;;;;;;;5.43;4.88;;;-0.90;84.40;;;;;;5096794;28;20024;-85
2023/03/01 00:21:41;;;;;;;7.95;5.97;;;-1.00;84.50;;;;;;5111818;28;20027;-86
2023/03/01 00:24:08;;;;;;;7.63;6.22;;;-1.00;84.10;;;;;;5115234;28;20438;-84
2023/03/01 00:26:33;;;;;;;7.78;6.13;;;-1.10;85.10;;;;;;5080204;28;20051;-85
2023/03/01 00:29:03;;;;;;;6.47;5.28;;;-1.00;85.80;;;;;;5099136;28;20038;-86
2023/03/01 00:31:31;;;;;;;9.38;6.00;;;-0.90;85.60;;;;;;5093163;28;20027;-84
2023/03/01 00:33:59;;;;;;;5.68;5.07;;;-0.90;85.40;;;;;;5108788;28;20023;-81
2023/03/01 00:36:27;;;;;;;6.85;5.35;;;-0.90;85.80;;;;;;5111181;28;20508;-84
2023/03/01 00:38:53;;;;;;;6.07;5.35;;;-0.90;85.40;;;;;;5075252;28;20073;-82
2023/03/01 00:41:22;;;;;;;5.78;5.18;;;-0.90;85.40;;;;;;5111329;28;20036;-83
2023/03/01 00:43:48;;;;;;;6.65;5.88;;;-0.90;85.40;;;;;;5111158;28;20028;-84
2023/03/01 00:46:18;;;;;;;7.93;6.10;;;-1.00;84.60;;;;;;5076195;28;20063;-85
2023/03/01 00:48:44;;;;;;;8.43;5.90;;;-1.00;84.90;;;;;;5096012;28;20081;-81
2023/03/01 00:51:16;;;;;;;7.13;5.63;;;-0.90;85.70;;;;;;5111099;28;20027;-85
2023/03/01 00:53:43;;;;;;;6.88;5.65;;;-0.90;85.90;;;;;;5076667;28;20020;-88
2023/03/01 00:56:10;;;;;;;7.20;5.65;;;-0.90;85.80;;;;;;5090545;28;20052;-85
2023/03/01 00:58:37;;;;;;;8.15;4.45;;;-0.90;85.60;;;;;;5110909;28;20031;-84
2023/03/01 01:01:16;;;;;;;6.60;5.68;;;-0.90;85.80;;;;;;5110250;28;20027;-85
2023/03/01 01:03:46;;;;;;;7.20;5.03;;;-0.80;85.60;;;;;;5110504;28;20371;-88
2023/03/01 01:06:20;;;;;;;7.63;5.80;;;-0.90;85.30;;;;;;5109508;28;20102;-84
2023/03/01 01:08:47;;;;;;;5.35;4.75;;;-1.00;85.30;;;;;;5092906;28;20524;-83
2023/03/01 01:11:13;;;;;;;10.27;6.78;;;-1.00;84.70;;;;;;5109446;28;20036;-83
2023/03/01 01:13:39;;;;;;;5.35;4.85;;;-1.10;85.50;;;;;;5108230;28;20058;-86
2023/03/01 01:16:06;;;;;;;5.68;4.95;;;-1.00;86.30;;;;;;5109361;28;20036;-84
2023/03/01 01:18:32;;;;;;;7.00;5.57;;;-0.90;86.20;;;;;;5091070;28;20093;-84
2023/03/01 01:20:57;;;;;;;5.03;4.53;;;-0.90;86.20;;;;;;5106819;28;20036;-84
2023/03/01 01:23:23;;;;;;;5.25;4.45;;;-0.80;85.90;;;;;;5091407;28;20052;-85
2023/03/01 01:25:49;;;;;;;6.78;5.85;;;-0.90;86.30;;;;;;5075089;28;20036;-84
2023/03/01 01:28:14;;;;;;;9.27;6.35;;;-0.80;85.90;;;;;;5109297;28;20028;-83
2023/03/01 01:30:40;;;;;;;7.00;6.32;;;-0.80;86.00;;;;;;5109426;28;20552;-84
2023/03/01 01:33:05;;;;;;;6.68;5.57;;;-0.80;85.90;;;;;;5112339;28;20397;-85
2023/03/01 01:35:31;;;;;;;7.47;5.60;;;-0.90;85.00;;;;;;5113787;28;20099;-85
2023/03/01 01:37:57;;;;;;;7.20;5.85;;;-1.00;86.10;;;;;;5112284;28;20054;-83
2023/03/01 01:40:22;;;;;;;6.30;5.68;;;-0.90;86.90;;;;;;5096099;28;20036;-84
2023/03/01 01:42:48;;;;;;;8.70;6.40;;;-0.80;86.70;;;;;;5095772;28;20028;-82
2023/03/01 01:45:30;;;;;;;5.10;4.60;;;-0.80;86.80;;;;;;5112901;28;20491;-84
2023/03/01 01:48:00;;;;;;;8.15;5.90;;;-0.90;87.60;;;;;;5112450;28;20031;-83
2023/03/01 01:50:26;;;;;;;7.53;5.43;;;-0.80;86.60;;;;;;5112661;28;20491;-84
2023/03/01 01:52:54;;;;;;;6.63;5.88;;;-0.80;86.50;;;;;;5093805;28;20452;-81
2023/03/01 01:55:25;;;;;;;8.13;6.03;;;-0.80;86.90;;;;;;5112214;28;20023;-84
2023/03/01 01:57:54;;;;;;;7.70;6.15;;;-0.90;85.90;;;;;;5112770;28;20023;-80
2023/03/01 02:00:25;;;;;;;4.55;4.07;;;-0.90;86.10;;;;;;5105172;28;20073;-85
2023/03/01 02:03:02;;;;;;;9.13;6.25;;;-1.00;86.70;;;;;;5095052;28;20035;-83
2023/03/01 02:05:50;;;;;;;7.28;6.57;;;-0.90;87.30;;;;;;5097377;28;20034;-84
2023/03/01 02:08:19;;;;;;;5.85;5.15;;;-0.90;87.30;;;;;;5109128;28;20039;-83
2023/03/01 02:10:45;;;;;;;5.38;4.65;;;-0.80;87.40;;;;;;5094836;28;20032;-81
2023/03/01 02:13:12;;;;;;;4.20;3.85;;;-0.70;87.00;;;;;;5094677;28;20031;-84
2023/03/01 02:15:40;;;;;;;5.43;4.93;;;-0.70;87.40;;;;;;5094000;28;20024;-83
2023/03/01 02:18:11;;;;;;;7.43;6.60;;;-0.80;87.50;;;;;;5087664;28;20035;-85
2023/03/01 02:21:01;;;;;;;5.40;4.88;;;-0.80;87.50;;;;;;5088348;28;20469;-83
2023/03/01 02:23:28;;;;;;;7.05;5.03;;;-0.70;87.40;;;;;;5113295;28;20494;-82
2023/03/01 02:26:15;;;;;;;8.73;5.93;;;-0.80;87.70;;;;;;5094518;28;20039;-80
2023/03/01 02:28:43;;;;;;;7.50;6.00;;;-0.80;88.00;;;;;;5112026;28;20094;-86
2023/03/01 02:33:56;;;;;;;5.55;4.78;;;-0.90;86.80;;;;;;5113808;28;20128;-81
2023/03/01 02:36:28;;;;;;;3.97;3.65;;;-1.00;87.00;;;;;;5094364;28;20063;-80
2023/03/01 02:38:57;;;;;;;4.95;4.13;;;-1.00;87.60;;;;;;5094099;28;20077;-79
2023/03/01 02:41:24;;;;;;;8.13;6.35;;;-0.90;87.60;;;;;;5084833;28;20036;-82
2023/03/01 02:43:50;;;;;;;10.32;6.88;;;-0.90;87.70;;;;;;5075331;28;20052;-84
2023/03/01 02:46:22;;;;;;;11.40;5.97;;;-0.90;87.70;;;;;;5094971;28;20062;-84
2023/03/01 02:48:56;;;;;;;8.75;6.28;;;-0.80;87.70;;;;;;5112604;28;20035;-83
2023/03/01 02:51:45;;;;;;;8.90;6.85;;;-0.70;87.60;;;;;;5092256;28;20044;-84
2023/03/01 02:54:10;;;;;;;7.90;6.15;;;-0.80;87.40;;;;;;5110929;28;20030;-84
2023/03/01 02:56:36;;;;;;;8.35;6.50;;;-0.70;87.30;;;;;;5112187;28;20039;-81
2023/03/01 02:59:03;;;;;;;10.20;7.10;;;-0.80;87.20;;;;;;5093621;28;20019;-80
2023/03/01 03:01:37;;;;;;;6.90;5.45;;;-0.70;87.60;;;;;;5093638;28;20027;-80
2023/03/01 03:04:11;;;;;;;7.47;5.85;;;-0.80;87.50;;;;;;5092516;28;20078;-81
2023/03/01 03:06:37;;;;;;;10.75;6.78;;;-0.80;87.20;;;;;;5109721;28;20035;-82
2023/03/01 03:09:04;;;;;;;7.80;6.82;;;-0.80;86.90;;;;;;5112677;28;20763;-84
2023/03/01 03:11:30;;;;;;;8.27;6.30;;;-0.90;86.80;;;;;;5077708;28;20552;-83
2023/03/01 03:13:56;;;;;;;9.00;7.05;;;-1.00;86.70;;;;;;5112702;28;20036;-82
2023/03/01 03:16:22;;;;;;;7.45;6.60;;;-1.00;87.20;;;;;;5112588;28;20079;-80
2023/03/01 03:18:48;;;;;;;6.28;5.68;;;-0.90;88.10;;;;;;5093169;28;20513;-81
2023/03/01 03:21:14;;;;;;;6.25;5.60;;;-0.90;88.20;;;;;;5094908;28;20125;-83
2023/03/01 03:23:40;;;;;;;5.28;4.68;;;-0.80;87.90;;;;;;5112991;28;20059;-80
2023/03/01 03:26:06;;;;;;;8.52;7.18;;;-0.70;87.80;;;;;;5111043;28;20271;-83
2023/03/01 03:28:33;;;;;;;7.45;6.22;;;-0.80;86.70;;;;;;5093661;28;20047;-81
2023/03/01 03:31:03;;;;;;;7.40;5.65;;;-0.90;87.00;;;;;;5092331;28;20028;-81
2023/03/01 03:33:29;;;;;;;8.60;7.50;;;-1.00;87.90;;;;;;5110149;28;20024;-82
2023/03/01 03:35:55;;;;;;;6.97;6.28;;;-0.90;88.30;;;;;;5111424;28;20111;-81
2023/03/01 03:38:21;;;;;;;7.05;6.15;;;-0.90;88.10;;;;;;5112314;28;20502;-81
2023/03/01 03:41:06;;;;;;;6.93;6.28;;;-0.80;88.10;;;;;;5093505;28;20034;-82
2023/03/01 03:43:34;;;;;;;6.53;5.38;;;-0.80;87.70;;;;;;5092767;28;20485;-82
2023/03/01 03:46:00;;;;;;;5.20;4.70;;;-0.70;88.00;;;;;;5106852;28;20028;-80
2023/03/01 03:48:26;;;;;;;10.07;7.38;;;-0.70;87.80;;;;;;5091738;28;20035;-81
2023/03/01 03:50:54;;;;;;;6.63;5.63;;;-0.80;87.70;;;;;;5093943;28;20455;-81
2023/03/01 03:53:21;;;;;;;8.38;6.72;;;-0.90;87.60;;;;;;5109040;28;20082;-82
2023/03/01 03:55:49;;;;;;;9.13;6.85;;;-0.90;87.00;;;;;;5089797;28;20428;-80
2023/03/01 03:58:16;;;;;;;6.75;5.80;;;-0.90;86.80;;;;;;5085987;28;20052;-83
2023/03/01 04:00:44;;;;;;;8.63;6.97;;;-0.90;88.30;;;;;;5092895;28;20544;-82
2023/03/01 04:03:11;;;;;;;10.18;7.50;;;-0.80;87.90;;;;;;5111054;28;20039;-80
2023/03/01 04:05:38;;;;;;;4.38;3.97;;;-0.70;88.00;;;;;;5093451;28;20473;-84
2023/03/01 04:08:06;;;;;;;6.35;5.45;;;-0.70;87.80;;;;;;5093106;28;20039;-83
2023/03/01 04:10:38;;;;;;;7.88;7.00;;;-0.70;87.50;;;;;;5092653;28;20024;-83
2023/03/01 04:13:05;;;;;;;8.23;6.57;;;-0.60;87.10;;;;;;5092997;28;20038;-80
2023/03/01 04:15:33;;;;;;;9.63;6.63;;;-0.70;86.60;;;;;;5109854;28;20085;-81
2023/03/01 04:17:59;;;;;;;6.57;5.57;;;-0.80;86.80;;;;;;5076173;28;20032;-81
2023/03/01 04:20:28;;;;;;;8.38;7.32;;;-0.80;86.30;;;;;;5103894;28;20023;-84
2023/03/01 04:23:10;;;;;;;13.77;9.50;;;-0.80;87.30;;;;;;5085079;28;20147;-82
2023/03/01 04:25:38;;;;;;;7.20;5.85;;;-0.80;87.30;;;;;;5084820;28;20033;-82
2023/03/01 04:28:03;;;;;;;5.93;5.32;;;-0.60;88.60;;;;;;5088153;28;20031;-82
2023/03/01 04:30:29;;;;;;;8.13;4.78;;;-0.70;86.60;;;;;;5072192;28;20021;-80
2023/03/01 04:32:54;;;;;;;8.32;7.45;;;-0.70;86.90;;;;;;5055939;28;20153;-81
2023/03/01 04:35:20;;;;;;;9.38;6.80;;;-0.70;87.10;;;;;;5058803;28;20032;-84
2023/03/01 04:37:46;;;;;;;7.10;5.50;;;-0.60;87.20;;;;;;5094240;28;20032;-82
2023/03/01 04:40:16;;;;;;;6.63;5.95;;;-0.60;87.00;;;;;;5072776;28;20035;-82
2023/03/01 04:42:43;;;;;;;5.20;4.65;;;-0.60;86.70;;;;;;5086249;28;20789;-81
2023/03/01 04:45:12;;;;;;;10.45;7.35;;;-0.70;86.40;;;;;;5094762;28;20032;-83
2023/03/01 04:47:40;;;;;;;12.45;6.28;;;-0.80;86.10;;;;;;5090537;28;20020;-83
2023/03/01 04:50:06;;;;;;;10.40;7.32;;;-0.70;87.10;;;;;;5055537;28;20029;-82
2023/03/01 04:52:32;;;;;;;9.05;6.25;;;-0.60;86.70;;;;;;5072948;28;20024;-83
2023/03/01 04:54:57;;;;;;;16.30;8.40;;;-0.50;86.70;;;;;;5095220;28;20050;-80
2023/03/01 04:57:23;;;;;;;10.13;7.13;;;-0.60;86.90;;;;;;5073303;28;20032;-81
2023/03/01 04:59:48;;;;;;;9.38;6.93;;;-0.60;86.90;;;;;;5071996;28;20085;-80
2023/03/01 05:02:14;;;;;;;8.02;6.43;;;-0.50;86.70;;;;;;5075016;28;20573;-81
2023/03/01 05:04:39;;;;;;;10.95;8.50;;;-0.50;86.70;;;;;;5079386;28;20034;-83
2023/03/01 05:07:05;;;;;;;11.40;7.47;;;-0.50;86.80;;;;;;5102334;28;20032;-82
2023/03/01 05:09:31;;;;;;;13.07;10.55;;;-0.60;87.00;;;;;;5093590;28;20036;-81
2023/03/01 05:11:56;;;;;;;8.50;6.80;;;-0.50;86.40;;;;;;5096511;28;20051;-80
2023/03/01 05:14:25;;;;;;;7.68;6.55;;;-0.50;86.40;;;;;;5075660;28;20047;-86
2023/03/01 05:16:50;;;;;;;9.50;6.43;;;-0.60;86.40;;;;;;5078806;28;20059;-83
2023/03/01 05:19:16;;;;;;;9.45;6.47;;;-0.60;85.90;;;;;;5065929;28;20028;-81
2023/03/01 05:22:06;;;;;;;8.80;6.13;;;-0.80;85.70;;;;;;5092510;28;20036;-81
2023/03/01 05:24:35;;;;;;;15.98;7.72;;;-0.80;86.10;;;;;;5121634;27;20032;-82
2023/03/01 05:27:03;;;;;;;5.38;4.82;;;-0.60;86.70;;;;;;5104045;28;20027;-80
2023/03/01 05:29:31;;;;;;;8.63;7.20;;;-0.60;86.60;;;;;;5117774;28;20034;-80
2023/03/01 05:32:02;;;;;;;7.00;6.30;;;-0.60;86.40;;;;;;5121934;28;20040;-80
2023/03/01 05:34:32;;;;;;;7.22;6.53;;;-0.60;86.40;;;;;;5125272;28;20488;-82
2023/03/01 05:36:59;;;;;;;7.30;6.57;;;-0.60;86.30;;;;;;5106302;28;20059;-79
2023/03/01 05:39:27;;;;;;;6.32;4.70;;;-0.50;86.30;;;;;;5098021;28;20047;-80
2023/03/01 05:41:54;;;;;;;8.50;7.13;;;-0.60;86.00;;;;;;5080152;28;20509;-82
2023/03/01 05:44:20;;;;;;;8.35;7.05;;;-0.50;85.30;;;;;;5083706;28;20081;-81
2023/03/01 05:46:46;;;;;;;9.95;8.00;;;-0.60;85.60;;;;;;5099071;28;20027;-80
2023/03/01 05:49:15;;;;;;;9.55;6.65;;;-0.60;85.40;;;;;;5110166;28;20039;-79
2023/03/01 05:51:42;;;;;;;7.63;5.88;;;-0.60;86.40;;;;;;5080933;28;20039;-80
2023/03/01 05:54:09;;;;;;;6.28;5.50;;;-0.50;85.70;;;;;;5107459;28;20063;-78
2023/03/01 05:56:35;;;;;;;8.70;5.70;;;-0.40;85.60;;;;;;5112653;28;20027;-78
2023/03/01 05:59:02;;;;;;;5.20;4.72;;;-0.40;85.50;;;;;;5113891;28;20028;-80
2023/03/01 06:01:29;;;;;;;13.00;8.13;;;-0.50;85.50;;;;;;5096613;28;20043;-79
2023/03/01 06:03:56;;;;;;;10.55;7.38;;;-0.50;85.50;;;;;;5080496;28;20047;-79
2023/03/01 06:06:22;;;;;;;10.13;7.68;;;-0.60;84.90;;;;;;5097343;28;20020;-79
2023/03/01 06:08:48;;;;;;;8.85;6.97;;;-0.60;85.00;;;;;;5112262;28;20486;-83
2023/03/01 06:11:13;;;;;;;7.70;5.40;;;-0.60;85.40;;;;;;5096544;28;20060;-81
2023/03/01 06:13:40;;;;;;;6.55;5.65;;;-0.60;85.40;;;;;;5115882;27;20034;-82
2023/03/01 06:16:07;;;;;;;7.63;6.75;;;-0.60;85.90;;;;;;5079991;28;20039;-81
2023/03/01 06:18:35;;;;;;;7.88;6.70;;;-0.60;86.00;;;;;;5117862;28;20107;-80
2023/03/01 06:21:01;;;;;;;10.18;7.50;;;-0.50;85.80;;;;;;5097149;28;20528;-78
2023/03/01 06:23:27;;;;;;;8.88;6.70;;;-0.40;85.80;;;;;;5093794;28;20079;-77
2023/03/01 06:25:53;;;;;;;7.72;6.82;;;-0.50;85.20;;;;;;5093319;28;20106;-79
2023/03/01 06:28:18;;;;;;;7.50;6.18;;;-0.60;85.00;;;;;;5096055;28;20035;-77
2023/03/01 06:30:44;;;;;;;7.03;6.32;;;-0.60;85.20;;;;;;5115012;28;20082;-78
2023/03/01 06:33:09;;;;;;;7.82;6.28;;;-0.70;85.20;;;;;;5093832;28;20028;-79
2023/03/01 06:35:35;;;;;;;7.40;6.10;;;-0.60;85.30;;;;;;5113083;28;20482;-76
2023/03/01 06:38:02;;;;;;;7.70;6.03;;;-0.70;85.20;;;;;;5094049;28;20028;-77
2023/03/01 06:40:29;;;;;;;8.80;7.18;;;-0.70;85.90;;;;;;5095353;28;20032;-78
2023/03/01 06:42:55;;;;;;;6.88;5.78;;;-0.70;85.60;;;;;;5111580;27;20087;-79
2023/03/01 06:45:21;;;;;;;9.25;6.78;;;-0.60;85.60;;;;;;5077218;28;20134;-80
2023/03/01 06:47:47;;;;;;;8.65;7.00;;;-0.60;85.20;;;;;;5111947;28;20503;-80
2023/03/01 06:50:13;;;;;;;8.60;6.22;;;-0.70;85.10;;;;;;5113228;28;20055;-80
2023/03/01 06:52:39;;;;;;;8.63;6.30;;;-0.60;85.40;;;;;;5092230;28;20023;-76
2023/03/01 06:55:06;;;;;;;9.20;7.38;;;-0.60;85.60;;;;;;5094969;28;20035;-79
2023/03/01 06:57:31;;;;;;;7.97;6.80;;;-0.60;85.40;;;;;;5079043;28;20024;-81
2023/03/01 06:59:57;;;;;;;6.35;5.75;;;-0.60;85.70;;;;;;5095282;28;20500;-76
2023/03/01 07:02:23;;;;;;;11.75;7.22;;;-0.60;85.70;;;;;;5113719;28;20020;-77
2023/03/01 07:04:50;;;;;;;5.57;4.53;;;-0.50;85.50;;;;;;5092811;28;20081;-79
2023/03/01 07:07:17;;;;;;;7.95;6.70;;;-0.60;85.30;;;;;;5095706;28;20024;-77
2023/03/01 07:09:46;;;;;;;6.30;5.70;;;-0.50;85.90;;;;;;5095250;28;20385;-76
2023/03/01 07:12:12;;;;;;;10.43;7.05;;;-0.50;86.00;;;;;;5103614;28;20103;-77
2023/03/01 07:14:37;;;;;;;11.07;10.20;;;-0.40;86.00;;;;;;5113369;28;20134;-78
2023/03/01 07:17:03;;;;;;;7.82;6.70;;;-0.40;85.70;;;;;;5112839;28;20034;-78
2023/03/01 07:19:29;;;;;;;10.68;9.07;;;-0.50;85.80;;;;;;5111775;28;20031;-79
2023/03/01 07:21:55;;;;;;;6.32;5.55;;;-0.50;85.40;;;;;;5092746;28;20024;-77
2023/03/01 07:24:21;;;;;;;13.23;7.95;;;-0.50;85.80;;;;;;5093364;28;20489;-77
2023/03/01 07:26:51;;;;;;;5.38;4.68;;;-0.40;85.80;;;;;;5093650;28;20458;-77
2023/03/01 07:29:18;;;;;;;5.75;5.25;;;-0.30;84.70;;;;;;5109505;28;20040;-77
2023/03/01 07:31:43;;;;;;;9.00;7.57;;;-0.30;84.80;;;;;;5106810;28;20031;-80
2023/03/01 07:34:10;;;;;;;16.30;15.00;;;-0.40;84.60;;;;;;5110028;28;20507;-77
2023/03/01 07:36:36;;;;;;;7.43;5.38;;;-0.40;84.90;;;;;;5094207;28;20032;-79
2023/03/01 07:39:02;;;;;;;14.52;13.32;;;-0.50;84.40;;;;;;5108223;28;20385;-78
2023/03/01 07:41:29;;;;;;;14.93;13.63;;;-0.50;85.00;;;;;;5092469;28;20539;-79
2023/03/01 07:43:56;;;;;;;8.30;6.65;;;-0.40;84.80;;;;;;5104791;28;20062;-79
2023/03/01 07:46:22;;;;;;;13.38;6.88;;;-0.30;84.20;;;;;;5112396;28;20532;-79
2023/03/01 07:48:47;;;;;;;7.65;5.78;;;-0.30;84.20;;;;;;5088850;28;20044;-79
2023/03/01 07:51:13;;;;;;;9.73;7.35;;;-0.20;83.80;;;;;;5110194;28;20035;-77
2023/03/01 07:53:39;;;;;;;7.07;5.15;;;-0.20;84.30;;;;;;5112398;28;20034;-79
2023/03/01 07:56:08;;;;;;;12.35;5.00;;;-0.30;83.20;;;;;;5106703;28;20027;-80
2023/03/01 07:58:35;;;;;;;6.03;4.57;;;-0.30;83.30;;;;;;5111562;28;20034;-79
2023/03/01 08:01:06;;;;;;;6.10;5.40;;;-0.40;83.30;;;;;;5111869;28;20097;-79
2023/03/01 08:03:32;;;;;;;8.50;7.50;;;-0.30;83.60;;;;;;5110901;28;20055;-76
2023/03/01 08:06:02;;;;;;;5.85;5.22;;;-0.30;84.70;;;;;;5111141;28;20040;-77
2023/03/01 08:08:27;;;;;;;7.85;6.95;;;-0.20;83.10;;;;;;5110932;28;20040;-77
2023/03/01 08:10:56;;;;;;;4.88;4.43;;;0.00;83.60;;;;;;5110700;28;20102;-80
2023/03/01 08:13:22;;;;;;;13.38;8.80;;;-0.10;81.80;;;;;;5111415;28;20380;-80
2023/03/01 08:15:49;;;;;;;10.85;8.13;;;-0.10;82.50;;;;;;5108170;28;20111;-78
2023/03/01 08:18:16;;;;;;;6.32;5.47;;;-0.10;82.50;;;;;;5112264;28;20022;-79
2023/03/01 08:20:42;;;;;;;10.55;7.65;;;0.00;81.50;;;;;;5098986;28;20024;-78
2023/03/01 08:23:07;;;;;;;5.75;5.22;;;0.10;81.20;;;;;;5084003;28;20058;-78
2023/03/01 08:25:33;;;;;;;9.73;6.95;;;0.20;81.00;;;;;;5118494;28;20062;-81
2023/03/01 08:27:59;;;;;;;12.95;6.68;;;0.20;80.70;;;;;;5099458;28;20063;-79
2023/03/01 08:30:25;;;;;;;10.07;6.97;;;0.30;79.80;;;;;;5118946;28;20024;-80
2023/03/01 08:32:51;;;;;;;5.65;5.10;;;0.30;80.10;;;;;;5103627;28;20080;-79
2023/03/01 08:35:17;;;;;;;7.85;6.68;;;0.30;79.50;;;;;;5123097;28;20035;-78
2023/03/01 08:37:43;;;;;;;7.05;5.57;;;0.30;79.60;;;;;;5114186;28;20553;-81
2023/03/01 08:40:10;;;;;;;9.07;6.63;;;0.30;79.30;;;;;;5112912;28;20057;-77
2023/03/01 08:42:37;;;;;;;8.68;6.85;;;0.40;79.60;;;;;;5117445;28;20030;-79
2023/03/01 08:45:03;;;;;;;7.60;6.80;;;0.30;79.50;;;;;;5074960;28;20038;-78
2023/03/01 08:47:29;;;;;;;9.32;6.13;;;0.40;79.40;;;;;;5118259;28;20531;-80
2023/03/01 08:49:55;;;;;;;7.95;7.00;;;0.30;79.20;;;;;;5117818;28;20039;-79
2023/03/01 08:52:21;;;;;;;7.18;6.35;;;0.20;79.60;;;;;;5093463;28;20485;-78
2023/03/01 08:54:50;;;;;;;6.97;6.10;;;0.30;79.60;;;;;;5092984;28;20035;-80
2023/03/01 08:57:16;;;;;;;5.57;4.97;;;0.50;78.60;;;;;;5098188;28;20039;-80
2023/03/01 08:59:41;;;;;;;8.07;6.30;;;0.40;78.90;;;;;;5112825;28;20019;-79
2023/03/01 09:02:13;;;;;;;7.88;6.72;;;0.70;78.80;;;;;;5080515;28;20035;-78
2023/03/01 09:04:39;;;;;;;7.25;6.55;;;0.80;77.80;;;;;;5115411;28;20374;-79
2023/03/01 09:07:05;;;;;;;7.57;6.88;;;1.00;77.40;;;;;;5111274;28;20059;-77
2023/03/01 09:09:31;;;;;;;6.97;6.28;;;1.10;77.70;;;;;;5114856;28;20058;-79
2023/03/01 09:11:56;;;;;;;5.07;4.63;;;0.90;77.10;;;;;;5112385;28;20039;-78
2023/03/01 09:14:22;;;;;;;4.75;4.35;;;0.80;77.30;;;;;;5108855;28;20043;-76
2023/03/01 09:16:48;;;;;;;8.05;5.85;;;0.70;77.50;;;;;;5092382;28;20031;-79
2023/03/01 09:19:14;;;;;;;7.47;6.53;;;0.80;77.10;;;;;;5084948;28;20114;-82
2023/03/01 09:21:40;;;;;;;7.00;5.70;;;0.80;77.20;;;;;;5087080;28;20546;-82
2023/03/01 09:24:14;;;;;;;7.93;6.15;;;0.80;76.80;;;;;;5113907;28;20043;-81
2023/03/01 09:26:40;;;;;;;8.30;5.78;;;0.90;77.60;;;;;;5113327;28;20035;-80
2023/03/01 09:29:05;;;;;;;7.05;5.97;;;1.00;77.00;;;;;;5095565;28;20478;-78
2023/03/01 09:31:31;;;;;;;10.27;7.85;;;1.10;77.40;;;;;;5113865;28;20483;-81
2023/03/01 09:33:57;;;;;;;9.07;6.07;;;1.00;78.20;;;;;;5077340;28;20378;-81
2023/03/01 09:36:27;;;;;;;10.55;7.07;;;1.00;77.20;;;;;;5094696;28;20668;-78
2023/03/01 09:38:53;;;;;;;8.25;5.78;;;1.00;76.90;;;;;;5069960;28;20038;-79
2023/03/01 09:41:45;;;;;;;7.53;6.72;;;1.00;76.80;;;;;;5093961;28;20043;-77
2023/03/01 09:44:20;;;;;;;22.85;20.95;;;0.90;77.10;;;;;;5110561;28;20393;-79
2023/03/01 09:46:46;;;;;;;9.30;7.47;;;0.90;77.50;;;;;;5113215;28;20035;-83
2023/03/01 09:49:24;;;;;;;4.88;4.22;;;1.00;77.80;;;;;;5078372;28;20027;-80
2023/03/01 09:52:12;;;;;;;6.97;5.85;;;1.00;77.40;;;;;;5105131;28;20020;-79
2023/03/01 09:54:38;;;;;;;10.50;7.15;;;1.00;77.90;;;;;;5088488;28;20045;-81
2023/03/01 09:57:15;;;;;;;8.85;7.07;;;1.20;77.00;;;;;;5113058;28;20036;-80
2023/03/01 10:00:17;;;;;;;10.00;6.95;;;1.00;76.70;;;;;;5111809;28;20039;-79
2023/03/01 10:03:16;;;;;;;8.98;7.32;;;1.10;76.90;;;;;;5111278;28;20030;-78
2023/03/01 10:05:54;;;;;;;8.65;6.35;;;1.10;76.80;;;;;;5083153;28;20119;-80
2023/03/01 10:08:44;;;;;;;7.05;6.03;;;1.00;77.00;;;;;;5112992;28;20039;-80
2023/03/01 10:11:26;;;;;;;8.57;6.20;;;1.00;77.80;;;;;;5093987;28;20038;-80
2023/03/01 10:14:05;;;;;;;7.40;6.63;;;1.10;77.10;;;;;;5113857;28;20040;-80
2023/03/01 10:16:54;;;;;;;9.85;6.35;;;1.10;76.80;;;;;;5106351;28;20032;-81
2023/03/01 10:19:41;;;;;;;11.25;7.65;;;1.20;76.90;;;;;;5061700;28;20485;-84
2023/03/01 10:22:18;;;;;;;8.77;6.05;;;1.10;77.40;;;;;;5083419;28;20078;-80
2023/03/01 10:24:46;;;;;;;5.90;5.30;;;1.00;77.70;;;;;;5085164;28;20024;-80
2023/03/01 10:27:46;;;;;;;9.23;7.13;;;1.20;76.70;;;;;;5074068;28;20029;-82
2023/03/01 10:30:22;;;;;;;8.83;7.43;;;1.40;77.10;;;;;;5087019;28;20044;-79
2023/03/01 10:32:52;;;;;;;10.52;7.63;;;1.40;76.60;;;;;;5087957;28;20318;-77
2023/03/01 10:35:24;;;;;;;10.80;9.80;;;1.30;75.90;;;;;;5090795;28;20524;-77
2023/03/01 10:38:05;;;;;;;7.38;5.68;;;1.40;75.70;;;;;;5085134;28;20039;-80
2023/03/01 10:40:33;;;;;;;9.35;6.55;;;1.40;75.70;;;;;;5088430;28;20024;-79
2023/03/01 10:43:01;;;;;;;7.50;6.80;;;1.50;75.70;;;;;;5089272;28;20028;-80
2023/03/01 10:45:35;;;;;;;8.48;4.40;;;1.50;75.40;;;;;;5066762;28;20512;-79
2023/03/01 10:48:05;;;;;;;8.90;7.00;;;1.40;76.30;;;;;;5087929;28;20030;-79
2023/03/01 10:50:32;;;;;;;8.80;6.32;;;1.60;76.10;;;;;;5089813;28;20568;-81
2023/03/01 10:53:03;;;;;;;10.52;7.05;;;1.60;75.70;;;;;;5089679;28;20636;-79
2023/03/01 10:55:39;;;;;;;10.65;7.82;;;1.60;75.00;;;;;;5088485;28;20028;-84
2023/03/01 10:58:14;;;;;;;8.23;7.10;;;1.50;75.30;;;;;;5054777;28;20036;-78
2023/03/01 11:01:01;;;;;;;7.75;5.82;;;1.60;74.50;;;;;;5089145;28;20025;-81
2023/03/01 11:03:30;;;;;;;9.55;7.20;;;1.60;75.00;;;;;;5089834;28;20750;-78
2023/03/01 11:06:11;;;;;;;9.07;7.63;;;1.60;74.80;;;;;;5088745;28;20027;-79
2023/03/01 11:08:43;;;;;;;9.20;6.50;;;1.40;74.80;;;;;;5090622;28;20024;-79
2023/03/01 11:11:18;;;;;;;8.05;6.53;;;1.50;75.30;;;;;;5071947;28;20101;-79
2023/03/01 11:13:51;;;;;;;7.85;6.40;;;1.60;74.70;;;;;;5089794;28;20020;-78
2023/03/01 11:16:24;;;;;;;14.50;7.28;;;1.80;74.30;;;;;;5070838;28;20444;-78
2023/03/01 11:19:08;;;;;;;8.15;6.85;;;2.00;75.00;;;;;;5071389;28;20028;-80
2023/03/01 11:21:39;;;;;;;10.07;8.00;;;2.00;74.40;;;;;;5089817;28;20067;-79
2023/03/01 11:24:10;;;;;;;11.27;7.22;;;2.10;73.30;;;;;;5100418;27;20046;-81
2023/03/01 11:26:40;;;;;;;9.75;6.80;;;2.30;73.20;;;;;;5111900;27;20059;-79
2023/03/01 11:29:17;;;;;;;7.82;6.93;;;2.30;73.40;;;;;;5095189;28;20514;-79
2023/03/01 11:31:44;;;;;;;7.10;6.38;;;2.20;72.90;;;;;;5113495;27;20118;-79
2023/03/01 11:34:24;;;;;;;8.27;6.80;;;2.30;72.50;;;;;;5108536;27;20055;-81
2023/03/01 11:36:56;;;;;;;10.45;6.65;;;2.20;72.30;;;;;;5093303;27;20032;-79
2023/03/01 11:39:33;;;;;;;7.53;6.05;;;2.40;72.60;;;;;;5094533;28;20042;-79
2023/03/01 11:42:35;;;;;;;8.30;6.75;;;2.60;71.50;;;;;;5099854;27;20029;-78
2023/03/01 11:45:06;;;;;;;8.18;7.32;;;2.50;71.90;;;;;;5073218;28;20036;-78
2023/03/01 11:48:13;;;;;;;9.60;7.57;;;2.60;71.50;;;;;;5113197;27;20019;-80
2023/03/01 11:50:39;;;;;;;11.73;5.95;;;2.50;72.00;;;;;;5117980;27;20047;-77
2023/03/01 11:53:35;;;;;;;14.90;7.95;;;2.50;71.40;;;;;;5116263;27;20027;-78
2023/03/01 11:56:43;;;;;;;8.98;7.75;;;2.70;71.70;;;;;;5111876;27;20115;-76
2023/03/01 11:59:30;;;;;;;7.95;7.15;;;3.00;70.80;;;;;;5102159;27;20043;-80
2023/03/01 12:02:02;;;;;;;9.80;7.45;;;3.00;70.20;;;;;;5110516;28;20034;-77
2023/03/01 12:04:39;;;;;;;12.40;8.27;;;3.10;70.00;;;;;;5110724;27;20493;-82
2023/03/01 12:07:31;;;;;;;7.35;6.60;;;3.50;70.70;;;;;;5111660;27;20031;-76
2023/03/01 12:10:02;;;;;;;8.98;7.35;;;3.10;69.80;;;;;;5113215;27;20035;-76
2023/03/01 12:12:36;;;;;;;10.00;7.50;;;3.20;70.30;;;;;;5095578;28;20043;-78
2023/03/01 12:15:27;;;;;;;10.88;7.22;;;3.10;69.90;;;;;;5113864;27;21178;-77
2023/03/01 12:18:10;;;;;;;12.27;7.00;;;3.30;70.00;;;;;;5114700;27;20051;-79
2023/03/01 12:21:21;;;;;;;10.07;6.75;;;3.30;69.10;;;;;;5097610;27;20388;-77
2023/03/01 12:24:05;;;;;;;;;;;3.50;69.00;;;;;;5060253;28;20429;-81
2023/03/01 12:26:44;;;;;;;7.03;6.32;;;3.60;69.20;;;;;;5064435;28;19909;-79
2023/03/01 12:29:34;;;;;;;9.07;7.60;;;3.40;69.00;;;;;;5096328;28;20051;-79
2023/03/01 12:32:19;;;;;;;7.15;6.45;;;3.60;69.60;;;;;;5098468;28;20028;-83
2023/03/01 12:34:49;;;;;;;7.38;6.50;;;3.80;68.00;;;;;;5105378;28;20028;-77
2023/03/01 12:37:14;;;;;;;9.15;6.90;;;3.80;67.80;;;;;;5106786;28;20453;-77
2023/03/01 12:39:52;;;;;;;8.90;7.43;;;3.60;67.90;;;;;;5108490;28;20024;-75
2023/03/01 12:42:38;;;;;;;7.60;5.15;;;3.40;67.90;;;;;;5103103;28;20028;-78
2023/03/01 12:45:22;;;;;;;9.27;7.72;;;3.20;69.40;;;;;;5069138;28;20485;-73
2023/03/01 12:48:16;;;;;;;8.57;6.68;;;4.10;67.10;;;;;;5083946;28;20127;-74
2023/03/01 12:50:49;;;;;;;10.73;9.73;;;3.80;66.60;;;;;;5091482;28;20080;-76
2023/03/01 12:53:35;;;;;;;10.63;7.43;;;3.70;68.40;;;;;;5108243;28;20035;-76
2023/03/01 12:56:13;;;;;;;8.98;6.65;;;4.50;65.70;;;;;;5089975;28;20068;-75
2023/03/01 12:58:59;;;;;;;7.80;7.00;;;4.10;66.10;;;;;;5096198;28;20019;-74
2023/03/01 13:01:41;;;;;;;9.60;7.30;;;3.80;66.90;;;;;;5097192;28;20375;-75
2023/03/01 13:04:19;;;;;;;8.27;7.45;;;4.70;65.40;;;;;;5101698;28;20030;-77
2023/03/01 13:06:55;;;;;;;8.63;7.45;;;5.50;63.10;;;;;;5109055;28;20032;-75
2023/03/01 13:09:44;;;;;;;7.25;6.55;;;6.90;61.60;;;;;;5099302;28;20035;-78